Time;durP1;ratioP1;P1;durP2;ratioP2;P2;SDS_P1;SDS_P2;PMS_P1;PMS_P2;Temp;Humidity;BMP_temperature;BMP_pressure;BME280_temperature;BME280_humidity;BME280_pressure;Samples;Min_cycle;Max_cycle;Signal;HPM_P1;HPM_P2
2022/09/18 00:00:22;;;;;;;11.50;3.08;;;;;;;11.16;48.67;101057.09;7426170;19;20337;-57
2022/09/18 00:02:48;;;;;;;15.90;3.58;;;;;;;11.14;48.55;101056.66;7427889;19;20001;-57
2022/09/18 00:05:13;;;;;;;16.98;3.53;;;;;;;11.12;48.46;101063.59;7427485;19;20384;-57
2022/09/18 00:07:39;;;;;;;13.90;4.05;;;;;;;11.08;48.29;101063.50;7426207;19;19998;-58
2022/09/18 00:10:05;;;;;;;12.15;2.83;;;;;;;11.15;48.38;101063.69;7424710;19;19991;-57
2022/09/18 00:12:31;;;;;;;12.82;2.47;;;;;;;11.17;48.50;101064.19;7426864;19;20002;-57
2022/09/18 00:14:56;;;;;;;13.48;2.20;;;;;;;11.19;48.66;101066.53;7425641;19;20016;-57
2022/09/18 00:17:22;;;;;;;17.90;3.00;;;;;;;11.02;49.06;101057.47;7426839;19;20450;-57
2022/09/18 00:19:47;;;;;;;10.70;2.33;;;;;;;11.04;49.32;101073.56;7423722;19;20062;-57
2022/09/18 00:22:13;;;;;;;12.23;2.65;;;;;;;11.09;49.12;101065.09;7426676;19;19994;-57
2022/09/18 00:24:38;;;;;;;17.35;2.92;;;;;;;11.09;49.57;101076.03;7426952;19;20076;-57
2022/09/18 00:27:04;;;;;;;13.20;2.05;;;;;;;10.98;49.54;101067.50;7425102;19;19999;-57
2022/09/18 00:29:29;;;;;;;12.40;2.00;;;;;;;11.02;49.64;101084.03;7421952;19;20065;-57
2022/09/18 00:31:55;;;;;;;10.20;2.05;;;;;;;11.10;49.43;101076.84;7426531;19;20061;-57
2022/09/18 00:34:21;;;;;;;11.40;1.38;;;;;;;10.95;49.53;101086.53;7426577;19;20003;-57
2022/09/18 00:36:47;;;;;;;11.50;1.42;;;;;;;10.67;49.91;101089.94;7424942;19;20005;-57
2022/09/18 00:39:13;;;;;;;7.60;1.98;;;;;;;10.72;49.88;101092.44;7423859;19;19996;-58
2022/09/18 00:41:40;;;;;;;9.80;1.50;;;;;;;10.78;49.75;101088.34;7425923;19;20473;-58
2022/09/18 00:44:43;;;;;;;6.20;1.38;;;;;;;10.74;49.66;101090.19;7426562;19;20001;-57
2022/09/18 00:47:09;;;;;;;10.25;1.60;;;;;;;10.66;49.72;101082.88;7425876;19;19998;-57
2022/09/18 00:49:43;;;;;;;8.20;1.58;;;;;;;10.64;49.87;101085.16;7422953;19;20002;-58
2022/09/18 00:52:10;;;;;;;12.23;1.80;;;;;;;10.58;50.07;101084.59;7425239;19;20047;-57
2022/09/18 00:54:40;;;;;;;13.07;2.13;;;;;;;10.70;49.81;101083.78;7424327;19;20015;-58
2022/09/18 00:57:20;;;;;;;13.90;2.92;;;;;;;10.53;49.10;101075.81;7425676;19;20073;-57
2022/09/18 00:59:48;;;;;;;11.82;2.40;;;;;;;10.56;49.45;101080.63;7416218;19;20476;-58
2022/09/18 01:02:14;;;;;;;10.48;1.98;;;;;;;10.55;49.18;101070.81;7394967;19;20003;-58
2022/09/18 01:04:39;;;;;;;13.48;2.28;;;;;;;10.81;48.53;101075.94;7397376;19;20088;-58
2022/09/18 01:07:39;;;;;;;10.98;2.28;;;;;;;10.84;47.84;101076.06;7395162;19;19999;-58
2022/09/18 01:10:26;;;;;;;13.95;2.20;;;;;;;10.91;47.89;101078.22;7394975;19;20059;-58
2022/09/18 01:12:55;;;;;;;9.85;2.22;;;;;;;11.01;47.61;101083.22;7396199;19;20002;-57
2022/09/18 01:15:49;;;;;;;15.48;2.42;;;;;;;10.83;47.47;101082.63;7392599;19;20014;-58
2022/09/18 01:18:17;;;;;;;11.32;2.15;;;;;;;11.14;47.15;101083.19;7393476;19;20458;-55
2022/09/18 01:20:48;;;;;;;10.02;2.03;;;;;;;11.12;47.72;101085.50;7396380;19;20327;-56
2022/09/18 01:23:36;;;;;;;10.88;1.90;;;;;;;10.95;47.98;101078.34;7395496;19;20009;-56
2022/09/18 01:26:10;;;;;;;8.10;1.50;;;;;;;10.94;48.07;101076.72;7394522;19;20002;-56
2022/09/18 01:28:51;;;;;;;11.30;1.85;;;;;;;10.95;48.06;101079.13;7393682;19;20027;-56
2022/09/18 01:31:21;;;;;;;5.70;1.20;;;;;;;10.78;48.69;101080.13;7396066;19;20010;-56
2022/09/18 01:33:55;;;;;;;8.30;1.30;;;;;;;10.80;48.67;101066.91;7394349;19;20066;-57
2022/09/18 01:36:23;;;;;;;9.07;1.30;;;;;;;10.55;49.24;101070.81;7394733;19;20022;-57
2022/09/18 01:38:56;;;;;;;9.32;1.30;;;;;;;10.54;49.38;101069.19;7392285;19;20255;-57
2022/09/18 01:41:24;;;;;;;6.43;1.60;;;;;;;10.72;49.05;101065.09;7394795;19;19999;-57
2022/09/18 01:43:53;;;;;;;8.90;1.67;;;;;;;10.78;48.84;101071.94;7394904;19;20490;-57
2022/09/18 01:46:19;;;;;;;8.60;1.80;;;;;;;10.85;48.63;101069.44;7396137;19;20018;-57
2022/09/18 01:48:56;;;;;;;6.57;1.20;;;;;;;10.73;49.12;101080.38;7391604;19;20454;-56
2022/09/18 01:51:25;;;;;;;10.45;1.80;;;;;;;10.64;49.42;101071.50;7393833;19;20017;-56
2022/09/18 01:53:54;;;;;;;7.72;1.60;;;;;;;10.70;48.89;101074.78;7393676;19;20013;-56
2022/09/18 01:56:47;;;;;;;7.30;1.10;;;;;;;10.52;49.19;101077.75;7394239;19;20006;-56
2022/09/18 01:59:21;;;;;;;7.68;1.40;;;;;;;10.57;49.19;101074.00;7390257;19;20031;-56
2022/09/18 02:01:48;;;;;;;9.20;1.30;;;;;;;10.44;49.55;101075.94;7393607;19;19994;-57
2022/09/18 02:04:18;;;;;;;8.10;1.35;;;;;;;10.36;49.31;101074.88;7393156;19;20553;-57
2022/09/18 02:07:06;;;;;;;7.72;1.05;;;;;;;10.61;48.92;101080.38;7393190;19;20013;-57
2022/09/18 02:09:32;;;;;;;8.30;1.60;;;;;;;10.63;48.95;101073.41;7390245;19;20003;-57
2022/09/18 02:12:06;;;;;;;9.30;1.70;;;;;;;10.54;49.10;101074.66;7390644;19;20006;-57
2022/09/18 02:14:38;;;;;;;11.40;1.33;;;;;;;10.56;49.00;101075.16;7394966;19;20078;-57
2022/09/18 02:17:07;;;;;;;10.27;1.25;;;;;;;10.45;49.37;101072.84;7393550;19;19998;-58
2022/09/18 02:19:41;;;;;;;9.43;1.55;;;;;;;10.64;48.73;101077.75;7392231;19;20345;-57
2022/09/18 02:22:09;;;;;;;12.32;1.65;;;;;;;10.72;48.52;101080.72;7393252;19;19999;-56
2022/09/18 02:24:37;;;;;;;9.32;1.50;;;;;;;10.69;48.72;101076.75;7393261;19;20007;-57
2022/09/18 02:27:04;;;;;;;9.63;1.30;;;;;;;10.49;49.04;101079.22;7392755;19;20015;-57
2022/09/18 02:29:30;;;;;;;8.18;1.17;;;;;;;10.41;49.36;101077.41;7390590;19;20031;-58
2022/09/18 02:31:58;;;;;;;7.20;1.05;;;;;;;10.55;49.02;101074.31;7392847;19;19995;-58
2022/09/18 02:34:24;;;;;;;7.38;1.25;;;;;;;10.40;49.44;101067.59;7393933;19;20002;-57
2022/09/18 02:37:00;;;;;;;12.10;1.60;;;;;;;10.50;49.28;101069.09;7393996;19;20002;-57
2022/09/18 02:39:52;;;;;;;8.80;1.67;;;;;;;10.48;49.29;101068.63;7390203;19;20066;-56
2022/09/18 02:42:34;;;;;;;11.10;1.55;;;;;;;10.54;49.18;101070.00;7394551;19;20119;-56
2022/09/18 02:45:09;;;;;;;6.32;1.52;;;;;;;10.57;49.19;101063.06;7391636;19;20002;-57
2022/09/18 02:47:38;;;;;;;6.65;1.15;;;;;;;10.49;49.56;101065.56;7392006;19;20002;-57
2022/09/18 02:50:14;;;;;;;8.70;1.20;;;;;;;10.56;49.52;101056.00;7391637;19;20005;-58
2022/09/18 02:52:58;;;;;;;15.23;1.85;;;;;;;10.52;49.38;101053.13;7394075;19;20017;-57
2022/09/18 02:55:27;;;;;;;10.35;1.75;;;;;;;10.49;49.37;101060.09;7392205;19;19999;-57
2022/09/18 02:58:05;;;;;;;6.38;1.45;;;;;;;10.44;49.40;101054.84;7394494;19;20002;-57
2022/09/18 03:00:31;;;;;;;12.00;1.85;;;;;;;10.44;49.62;101057.59;7392802;19;20003;-57
2022/09/18 03:03:00;;;;;;;8.98;1.50;;;;;;;10.22;49.80;101055.28;7391456;19;20484;-57
2022/09/18 03:05:26;;;;;;;10.75;1.70;;;;;;;10.19;49.85;101062.22;7391362;19;19999;-57
2022/09/18 03:07:52;;;;;;;13.35;1.40;;;;;;;10.31;49.57;101056.00;7392203;19;20023;-57
2022/09/18 03:10:17;;;;;;;10.60;1.60;;;;;;;10.32;49.61;101051.31;7389666;19;20002;-57
2022/09/18 03:12:43;;;;;;;10.30;1.50;;;;;;;10.28;49.90;101048.47;7392877;19;20087;-57
2022/09/18 03:15:10;;;;;;;10.80;1.75;;;;;;;10.27;49.57;101049.59;7392532;19;20522;-57
2022/09/18 03:17:35;;;;;;;10.40;1.67;;;;;;;10.26;49.52;101058.94;7390629;19;20002;-57
2022/09/18 03:20:01;;;;;;;13.10;1.95;;;;;;;10.27;49.64;101057.78;7390736;19;20013;-58
2022/09/18 03:22:27;;;;;;;12.55;1.88;;;;;;;10.21;49.92;101051.75;7390835;19;20064;-57
2022/09/18 03:24:52;;;;;;;9.90;1.50;;;;;;;10.22;49.78;101053.38;7391618;19;19999;-58
2022/09/18 03:27:18;;;;;;;9.82;1.58;;;;;;;10.24;49.61;101055.75;7392582;19;19994;-57
2022/09/18 03:29:44;;;;;;;9.68;1.60;;;;;;;10.04;50.18;101069.16;7390101;19;20002;-55
2022/09/18 03:32:10;;;;;;;9.45;1.35;;;;;;;10.02;49.94;101062.41;7391813;19;20072;-55
2022/09/18 03:34:37;;;;;;;10.98;1.40;;;;;;;10.18;49.83;101068.03;7392486;19;19998;-55
2022/09/18 03:37:02;;;;;;;14.20;1.75;;;;;;;10.12;49.93;101053.78;7391555;19;19999;-56
2022/09/18 03:39:28;;;;;;;8.60;1.40;;;;;;;10.16;49.81;101056.66;7390022;19;20009;-56
2022/09/18 03:41:53;;;;;;;9.95;1.73;;;;;;;10.20;49.63;101057.56;7389861;19;20025;-56
2022/09/18 03:44:19;;;;;;;6.28;1.58;;;;;;;10.24;49.85;101055.75;7392235;19;19995;-56
2022/09/18 03:46:44;;;;;;;8.25;1.33;;;;;;;10.19;49.73;101054.03;7391279;19;20018;-56
2022/09/18 03:49:10;;;;;;;8.23;1.42;;;;;;;10.24;49.67;101056.53;7389228;19;20003;-56
2022/09/18 03:51:35;;;;;;;8.65;1.20;;;;;;;10.24;49.63;101064.75;7390801;19;20006;-57
2022/09/18 03:54:01;;;;;;;7.28;1.80;;;;;;;10.10;50.31;101061.53;7391696;19;20022;-57
2022/09/18 03:56:26;;;;;;;11.48;1.70;;;;;;;10.31;49.67;101061.44;7390509;19;20013;-57
2022/09/18 03:58:52;;;;;;;10.15;1.60;;;;;;;10.47;49.41;101065.13;7388111;19;20003;-57
2022/09/18 04:01:18;;;;;;;10.82;1.48;;;;;;;10.54;49.55;101070.00;7389671;19;20036;-57
2022/09/18 04:03:44;;;;;;;9.23;1.77;;;;;;;10.31;49.85;101072.38;7389273;19;20020;-57
2022/09/18 04:06:09;;;;;;;12.45;1.30;;;;;;;10.14;50.38;101075.28;7391189;19;20011;-57
2022/09/18 04:08:36;;;;;;;9.00;1.30;;;;;;;10.38;49.65;101064.41;7389348;19;19998;-57
2022/09/18 04:11:03;;;;;;;7.20;1.83;;;;;;;10.51;49.49;101056.25;7391306;19;20006;-57
2022/09/18 04:13:30;;;;;;;12.95;2.15;;;;;;;10.46;49.58;101057.25;7390906;19;20007;-57
2022/09/18 04:15:55;;;;;;;9.57;1.60;;;;;;;10.45;49.61;101044.72;7391093;19;19999;-57
2022/09/18 04:18:20;;;;;;;13.43;1.80;;;;;;;10.46;49.90;101051.78;7387681;19;20017;-57
2022/09/18 04:20:46;;;;;;;8.90;1.45;;;;;;;10.36;49.92;101042.09;7391305;19;20465;-57
2022/09/18 04:23:13;;;;;;;10.02;1.40;;;;;;;10.35;49.91;101037.75;7389360;19;20073;-57
2022/09/18 04:25:42;;;;;;;7.15;1.27;;;;;;;10.35;49.66;101051.44;7389340;19;19999;-57
2022/09/18 04:28:08;;;;;;;11.43;1.58;;;;;;;10.38;49.87;101039.03;7389443;19;20034;-57
2022/09/18 04:30:34;;;;;;;7.95;1.80;;;;;;;10.32;49.87;101041.16;7389783;19;20029;-57
2022/09/18 04:33:00;;;;;;;8.75;1.70;;;;;;;10.36;49.50;101047.56;7390504;19;20062;-56
2022/09/18 04:35:25;;;;;;;12.10;1.63;;;;;;;10.33;49.61;101037.31;7392717;19;20005;-56
2022/09/18 04:37:51;;;;;;;9.32;1.40;;;;;;;10.30;49.81;101035.25;7394326;19;20006;-56
2022/09/18 04:40:17;;;;;;;10.48;1.60;;;;;;;10.36;49.81;101036.63;7396744;19;20017;-56
2022/09/18 04:42:42;;;;;;;9.13;1.50;;;;;;;10.43;49.38;101033.34;7397946;19;20365;-55
2022/09/18 04:45:09;;;;;;;7.45;1.50;;;;;;;10.36;49.66;101053.03;7397595;19;20068;-56
2022/09/18 04:47:35;;;;;;;6.78;1.20;;;;;;;10.41;49.66;101060.22;7396669;19;19995;-56
2022/09/18 04:50:00;;;;;;;8.40;1.30;;;;;;;10.48;49.63;101044.81;7395613;19;20020;-56
2022/09/18 04:52:26;;;;;;;12.02;1.67;;;;;;;10.38;49.50;101034.34;7397776;19;20010;-55
2022/09/18 04:54:51;;;;;;;8.98;1.40;;;;;;;10.27;49.89;101031.28;7397363;19;20002;-56
2022/09/18 04:57:17;;;;;;;9.63;1.30;;;;;;;10.34;49.52;101038.09;7399209;19;19990;-56
2022/09/18 04:59:42;;;;;;;8.77;1.13;;;;;;;10.34;49.78;101032.63;7392266;19;20026;-56
2022/09/18 05:02:08;;;;;;;9.82;1.40;;;;;;;10.25;50.02;101019.88;7395574;19;20393;-56
2022/09/18 05:04:33;;;;;;;10.02;1.50;;;;;;;10.19;50.19;101018.53;7396466;19;20017;-56
2022/09/18 05:06:59;;;;;;;8.40;1.67;;;;;;;10.27;49.91;101019.53;7396917;19;20005;-56
2022/09/18 05:09:24;;;;;;;7.10;1.42;;;;;;;10.11;50.23;101022.94;7392322;19;20035;-56
2022/09/18 05:11:50;;;;;;;7.35;1.58;;;;;;;10.19;50.22;101023.16;7397058;19;19994;-56
2022/09/18 05:14:15;;;;;;;9.73;1.85;;;;;;;10.17;50.14;101014.53;7396295;19;19998;-57
2022/09/18 05:16:41;;;;;;;8.07;1.45;;;;;;;10.28;49.80;101023.88;7395165;19;19987;-56
2022/09/18 05:19:07;;;;;;;8.00;1.67;;;;;;;10.15;50.12;101025.78;7392257;19;20038;-56
2022/09/18 05:21:32;;;;;;;7.95;1.60;;;;;;;10.16;50.07;101021.13;7396374;19;20002;-56
2022/09/18 05:23:58;;;;;;;8.60;1.67;;;;;;;10.15;49.74;101019.53;7395442;19;20004;-56
2022/09/18 05:26:23;;;;;;;5.28;1.52;;;;;;;9.99;50.41;101025.66;7396251;19;20003;-56
2022/09/18 05:28:49;;;;;;;10.45;1.63;;;;;;;10.17;50.33;101030.91;7393340;19;20009;-57
2022/09/18 05:31:15;;;;;;;11.93;1.65;;;;;;;10.30;50.01;101021.59;7396347;19;20446;-56
2022/09/18 05:33:41;;;;;;;9.15;1.50;;;;;;;10.23;49.90;101026.84;7394597;19;20301;-56
2022/09/18 05:36:07;;;;;;;8.65;1.45;;;;;;;10.19;49.96;101034.09;7394622;19;20453;-57
2022/09/18 05:38:33;;;;;;;9.88;1.95;;;;;;;10.22;49.85;101030.69;7392480;19;20050;-56
2022/09/18 05:41:02;;;;;;;13.43;3.33;;;;;;;10.35;49.60;101034.25;7395867;19;19991;-57
2022/09/18 05:43:35;;;;;;;10.73;3.50;;;;;;;10.19;50.30;101040.38;7394486;19;20001;-57
2022/09/18 05:46:03;;;;;;;11.27;2.85;;;;;;;10.19;50.09;101026.72;7394785;19;20017;-57
2022/09/18 05:48:29;;;;;;;13.32;2.10;;;;;;;10.24;50.25;101037.41;7393357;19;20437;-57
2022/09/18 05:50:55;;;;;;;7.32;1.85;;;;;;;10.18;50.61;101035.25;7391373;19;20009;-57
2022/09/18 05:53:21;;;;;;;9.07;1.42;;;;;;;10.39;49.64;101041.41;7393532;19;20489;-57
2022/09/18 05:55:46;;;;;;;11.07;1.90;;;;;;;10.46;49.79;101036.19;7394664;19;19999;-57
2022/09/18 05:58:14;;;;;;;8.27;1.67;;;;;;;10.42;50.00;101035.28;7395896;19;20002;-57
2022/09/18 06:00:40;;;;;;;8.05;1.40;;;;;;;10.43;49.98;101038.78;7394701;19;20413;-57
2022/09/18 06:03:08;;;;;;;7.03;1.50;;;;;;;10.37;50.32;101037.41;7395279;19;19999;-56
2022/09/18 06:05:36;;;;;;;12.98;2.22;;;;;;;10.48;50.04;101042.09;7393181;19;19999;-56
2022/09/18 06:08:04;;;;;;;9.30;1.70;;;;;;;10.56;50.24;101045.06;7392363;19;20002;-56
2022/09/18 06:10:31;;;;;;;11.05;1.75;;;;;;;10.77;49.92;101053.94;7392661;19;20007;-56
2022/09/18 06:13:12;;;;;;;13.52;1.92;;;;;;;10.66;50.33;101037.19;7393641;19;20107;-56
2022/09/18 06:15:37;;;;;;;13.63;1.85;;;;;;;10.73;50.17;101041.31;7393184;19;20002;-56
2022/09/18 06:18:04;;;;;;;13.35;2.50;;;;;;;10.81;50.39;101034.91;7391442;19;20070;-56
2022/09/18 06:20:29;;;;;;;12.95;2.33;;;;;;;10.83;50.64;101030.69;7392496;19;20473;-56
2022/09/18 06:23:02;;;;;;;14.18;2.58;;;;;;;10.86;50.63;101031.97;7394248;19;20084;-57
2022/09/18 06:25:28;;;;;;;12.13;2.33;;;;;;;10.90;50.44;101032.88;7391950;19;20545;-55
2022/09/18 06:27:58;;;;;;;12.10;2.53;;;;;;;10.88;50.41;101029.69;7392836;19;20006;-56
2022/09/18 06:30:30;;;;;;;8.32;1.98;;;;;;;10.87;51.03;101038.22;7391654;19;20106;-56
2022/09/18 06:33:00;;;;;;;12.15;2.70;;;;;;;10.82;50.72;101033.75;7392393;19;20359;-56
2022/09/18 06:35:25;;;;;;;17.25;3.58;;;;;;;10.78;51.36;101035.59;7392098;19;19999;-56
2022/09/18 06:37:50;;;;;;;14.57;3.25;;;;;;;10.93;50.94;101025.91;7391528;19;20021;-56
2022/09/18 06:40:16;;;;;;;9.75;2.85;;;;;;;10.92;50.73;101035.25;7391963;19;20025;-56
2022/09/18 06:42:42;;;;;;;16.77;3.15;;;;;;;10.81;50.97;101032.97;7393657;19;20002;-56
2022/09/18 06:45:10;;;;;;;14.32;2.70;;;;;;;10.85;51.07;101036.63;7392222;19;20023;-56
2022/09/18 06:47:36;;;;;;;11.25;2.40;;;;;;;10.79;51.16;101035.25;7390695;19;20015;-57
2022/09/18 06:50:02;;;;;;;14.88;3.55;;;;;;;10.90;50.96;101034.81;7389706;19;19998;-57
2022/09/18 06:52:27;;;;;;;11.98;2.10;;;;;;;11.01;50.90;101044.16;7391872;19;19998;-57
2022/09/18 06:54:53;;;;;;;11.77;1.80;;;;;;;11.07;50.41;101042.75;7392130;19;20014;-57
2022/09/18 06:57:18;;;;;;;12.80;2.97;;;;;;;11.14;50.22;101042.16;7393263;19;20007;-57
2022/09/18 06:59:44;;;;;;;14.40;3.90;;;;;;;11.25;49.78;101037.00;7388031;19;19999;-57
2022/09/18 07:02:13;;;;;;;11.45;3.00;;;;;;;11.37;49.61;101036.97;7393335;19;19995;-58
2022/09/18 07:04:38;;;;;;;9.80;1.90;;;;;;;11.44;49.75;101034.44;7391859;19;19999;-57
2022/09/18 07:07:05;;;;;;;8.35;1.55;;;;;;;11.42;49.48;101036.72;7392747;19;20095;-57
2022/09/18 07:09:30;;;;;;;9.77;2.03;;;;;;;10.99;50.48;101051.88;7388632;19;20478;-57
2022/09/18 07:11:56;;;;;;;17.17;4.55;;;;;;;11.22;50.21;101055.72;7392386;19;19995;-57
2022/09/18 07:14:22;;;;;;;11.63;3.92;;;;;;;11.21;50.34;101064.28;7393370;19;20513;-57
2022/09/18 07:16:47;;;;;;;13.93;3.45;;;;;;;11.32;49.89;101067.31;7392636;19;19995;-57
2022/09/18 07:19:13;;;;;;;14.77;4.35;;;;;;;11.34;50.08;101056.81;7391130;19;20454;-56
2022/09/18 07:21:38;;;;;;;17.50;5.85;;;;;;;11.35;50.60;101055.69;7392427;19;20002;-56
2022/09/18 07:24:04;;;;;;;13.65;3.78;;;;;;;11.38;49.98;101052.25;7391259;19;19995;-56
2022/09/18 07:26:30;;;;;;;9.73;3.03;;;;;;;11.06;51.13;101051.28;7391076;19;20006;-57
2022/09/18 07:28:55;;;;;;;15.95;4.18;;;;;;;11.18;50.63;101052.06;7390612;19;19998;-57
2022/09/18 07:31:21;;;;;;;12.65;3.55;;;;;;;11.11;50.65;101040.13;7391394;19;19995;-57
2022/09/18 07:33:51;;;;;;;19.15;3.55;;;;;;;11.17;50.75;101046.94;7391667;19;19999;-56
2022/09/18 07:36:17;;;;;;;12.10;2.30;;;;;;;11.14;50.63;101034.75;7390361;19;19990;-57
2022/09/18 07:38:43;;;;;;;9.85;1.88;;;;;;;11.16;51.02;101040.69;7388447;19;20021;-57
2022/09/18 07:41:08;;;;;;;7.20;1.55;;;;;;;11.23;50.98;101043.63;7392193;19;20393;-56
2022/09/18 07:43:34;;;;;;;7.50;1.60;;;;;;;11.44;50.45;101034.44;7390187;19;20465;-57
2022/09/18 07:46:01;;;;;;;7.90;1.95;;;;;;;11.37;50.95;101028.75;7390762;19;19999;-56
2022/09/18 07:48:27;;;;;;;9.00;1.95;;;;;;;11.40;51.28;101033.53;7387840;19;20002;-57
2022/09/18 07:50:56;;;;;;;9.90;1.88;;;;;;;11.30;51.26;101026.59;7389823;19;20006;-57
2022/09/18 07:53:23;;;;;;;8.98;1.85;;;;;;;11.16;51.50;101035.22;7391806;19;20066;-57
2022/09/18 07:55:48;;;;;;;10.43;2.10;;;;;;;11.19;51.27;101030.97;7392038;19;20010;-57
2022/09/18 07:58:14;;;;;;;7.47;1.60;;;;;;;11.29;51.40;101022.28;7392743;19;20389;-56
2022/09/18 08:00:39;;;;;;;9.68;2.17;;;;;;;11.39;51.36;101031.91;7392404;19;20348;-56
2022/09/18 08:03:13;;;;;;;5.80;1.58;;;;;;;11.69;50.69;101031.56;7390594;19;20006;-57
2022/09/18 08:05:40;;;;;;;9.90;1.60;;;;;;;11.90;50.30;101029.44;7391777;19;20319;-57
2022/09/18 08:08:12;;;;;;;9.38;1.60;;;;;;;12.09;49.99;101041.66;7390085;19;20409;-57
2022/09/18 08:10:40;;;;;;;7.13;2.17;;;;;;;11.68;51.02;101043.69;7392995;19;20017;-57
2022/09/18 08:13:06;;;;;;;11.25;3.25;;;;;;;11.63;51.60;101035.72;7399035;19;20006;-57
2022/09/18 08:15:33;;;;;;;14.23;3.70;;;;;;;11.59;51.86;101036.41;7398968;19;20025;-56
2022/09/18 08:17:59;;;;;;;13.30;3.88;;;;;;;11.80;51.26;101029.91;7394864;19;19998;-56
2022/09/18 08:20:24;;;;;;;12.45;2.33;;;;;;;11.75;51.31;101027.44;7396551;19;20464;-57
2022/09/18 08:22:50;;;;;;;12.90;3.80;;;;;;;11.91;51.34;101025.56;7398004;19;20054;-57
2022/09/18 08:25:16;;;;;;;14.85;3.92;;;;;;;12.14;50.97;101024.94;7397033;19;20477;-57
2022/09/18 08:27:42;;;;;;;17.35;4.78;;;;;;;12.09;51.14;101019.72;7395716;19;20339;-57
2022/09/18 08:30:10;;;;;;;12.70;3.67;;;;;;;12.15;51.17;101016.38;7395749;19;20002;-57
2022/09/18 08:32:36;;;;;;;9.70;2.78;;;;;;;12.09;51.05;101006.03;7398818;19;20013;-57
2022/09/18 08:35:02;;;;;;;8.93;2.15;;;;;;;12.22;51.24;101006.72;7396256;19;20062;-57
2022/09/18 08:37:28;;;;;;;16.08;4.85;;;;;;;12.12;50.81;101008.06;7397637;19;20026;-57
2022/09/18 08:39:54;;;;;;;20.00;5.28;;;;;;;12.20;50.86;101015.31;7397120;19;20462;-57
2022/09/18 08:42:44;;;;;;;10.02;2.28;;;;;;;12.13;50.44;101020.63;7397643;19;20014;-61
2022/09/18 08:45:16;;;;;;;12.43;3.28;;;;;;;12.19;50.04;101002.75;7397726;19;20021;-57
2022/09/18 08:47:46;;;;;;;9.70;2.92;;;;;;;12.19;50.05;101010.19;7395090;19;20286;-57
2022/09/18 08:50:23;;;;;;;14.60;2.90;;;;;;;12.00;50.13;101016.38;7393501;19;20001;-57
2022/09/18 08:52:50;;;;;;;11.00;2.70;;;;;;;12.27;49.69;101014.69;7396059;19;20103;-57
2022/09/18 08:55:26;;;;;;;15.77;3.97;;;;;;;12.26;49.41;101008.41;7395348;19;19998;-57
2022/09/18 08:57:54;;;;;;;12.88;2.33;;;;;;;12.43;49.17;101000.97;7397031;19;20458;-57
2022/09/18 09:00:35;;;;;;;10.32;2.60;;;;;;;12.57;49.40;101015.00;7395499;19;19991;-57
2022/09/18 09:03:33;;;;;;;11.68;2.40;;;;;;;12.43;49.52;101000.97;7395442;19;20328;-56
2022/09/18 09:06:18;;;;;;;11.00;2.60;;;;;;;12.27;49.86;100999.03;7394983;19;20450;-57
2022/09/18 09:08:58;;;;;;;17.33;3.88;;;;;;;12.46;49.43;100994.75;7394472;19;20010;-57
2022/09/18 09:11:42;;;;;;;8.88;1.83;;;;;;;12.61;48.77;100993.97;7396929;19;20097;-57
2022/09/18 09:14:17;;;;;;;10.93;2.20;;;;;;;12.65;49.13;100986.59;7394178;19;20517;-57
2022/09/18 09:17:04;;;;;;;11.20;2.00;;;;;;;12.48;49.14;100981.50;7397133;19;20002;-57
2022/09/18 09:19:33;;;;;;;8.55;2.00;;;;;;;12.44;49.38;100975.13;7392321;19;20013;-57
2022/09/18 09:22:23;;;;;;;7.93;2.00;;;;;;;12.64;48.89;100979.53;7394238;19;20002;-57
2022/09/18 09:25:02;;;;;;;8.65;1.90;;;;;;;12.63;49.22;100966.97;7394508;19;19998;-57
2022/09/18 09:27:33;;;;;;;7.53;1.85;;;;;;;12.54;49.45;100979.28;7396749;19;20062;-56
2022/09/18 09:30:01;;;;;;;7.10;1.42;;;;;;;12.66;49.51;100963.50;7392948;19;20003;-57
2022/09/18 09:32:30;;;;;;;9.35;1.52;;;;;;;12.54;49.01;100947.16;7394501;19;20025;-56
2022/09/18 09:35:03;;;;;;;7.80;1.45;;;;;;;12.74;48.46;100950.72;7393846;19;20074;-57
2022/09/18 09:37:42;;;;;;;10.70;1.50;;;;;;;13.00;48.06;100952.09;7393844;19;20112;-57
2022/09/18 09:40:33;;;;;;;9.10;1.55;;;;;;;13.17;47.61;100946.16;7394176;19;19995;-59
2022/09/18 09:43:04;;;;;;;7.75;1.73;;;;;;;13.32;47.18;100952.69;7394151;19;20006;-57
2022/09/18 09:45:41;;;;;;;5.47;1.20;;;;;;;13.55;46.77;100932.72;7392978;19;19999;-58
2022/09/18 09:48:15;;;;;;;6.63;1.20;;;;;;;13.00;47.69;100936.41;7394252;19;20091;-58
2022/09/18 09:50:43;;;;;;;7.07;1.52;;;;;;;12.90;47.48;100942.47;7393576;19;20101;-58
2022/09/18 09:53:11;;;;;;;7.13;1.30;;;;;;;13.00;47.68;100952.88;7393979;19;20014;-57
2022/09/18 09:56:04;;;;;;;5.80;1.25;;;;;;;12.79;48.06;100971.59;7394895;19;20025;-59
2022/09/18 09:59:06;;;;;;;11.02;1.98;;;;;;;12.41;49.37;100984.06;7397860;19;20070;-59
2022/09/18 10:01:36;;;;;;;7.53;1.30;;;;;;;12.37;49.64;100997.69;7391465;19;20003;-59
2022/09/18 10:04:23;;;;;;;13.82;2.15;;;;;;;11.99;51.78;101023.00;7367390;19;20010;-59
2022/09/18 10:07:09;;;;;;;6.13;1.25;;;;;;;11.62;52.04;101009.47;7391771;19;20355;-58
2022/09/18 10:09:44;;;;;;;6.85;1.00;;;;;;;11.30;51.88;100991.03;7389933;19;19999;-58
2022/09/18 10:13:54;;;;;;;4.97;1.20;;;;;;;14.51;52.57;100998.25;6918449;19;9869915;-59
2022/09/18 10:16:23;;;;;;;8.73;1.95;;;;;;;14.67;52.45;101001.00;7424332;19;20073;-58
2022/09/18 10:18:49;;;;;;;7.25;1.70;;;;;;;14.35;51.69;100998.19;7420476;19;20454;-58
2022/09/18 10:21:22;;;;;;;10.85;2.33;;;;;;;14.27;51.72;100996.41;7398797;19;20029;-58
2022/09/18 10:23:57;;;;;;;8.57;2.00;;;;;;;14.20;50.62;100992.31;7423646;19;20022;-57
2022/09/18 10:26:27;;;;;;;8.50;1.80;;;;;;;14.11;50.32;100986.19;7425776;19;19999;-57
2022/09/18 10:28:52;;;;;;;5.60;1.58;;;;;;;14.11;50.59;100994.41;7422192;19;20350;-57
2022/09/18 10:31:18;;;;;;;6.80;1.70;;;;;;;14.10;50.70;100997.50;7426713;19;19994;-58
2022/09/18 10:33:45;;;;;;;7.18;1.45;;;;;;;14.04;50.38;100999.69;7425889;19;19994;-57
2022/09/18 10:36:27;;;;;;;7.30;1.80;;;;;;;14.25;50.16;100998.69;7425391;19;20022;-58
2022/09/18 10:38:53;;;;;;;6.88;2.03;;;;;;;14.42;49.88;101006.59;7421898;19;20001;-58
2022/09/18 10:41:27;;;;;;;7.47;1.90;;;;;;;14.40;50.42;101008.91;7424328;19;19994;-58
2022/09/18 10:44:01;;;;;;;8.18;1.70;;;;;;;14.41;50.51;100996.81;7424881;19;20102;-58
2022/09/18 10:46:29;;;;;;;10.38;2.58;;;;;;;14.33;50.40;101001.28;7426986;19;20039;-58
2022/09/18 10:48:56;;;;;;;9.65;2.40;;;;;;;14.22;50.33;100998.25;7426180;19;20477;-58
2022/09/18 10:51:24;;;;;;;8.35;2.25;;;;;;;14.26;50.44;101001.09;7426148;19;20029;-58
2022/09/18 10:54:14;;;;;;;12.98;2.17;;;;;;;14.20;50.74;101003.25;7427814;19;20017;-59
2022/09/18 10:56:40;;;;;;;11.32;2.30;;;;;;;14.28;50.50;101004.25;7424683;19;20002;-59
2022/09/18 10:59:32;;;;;;;7.72;1.73;;;;;;;14.33;49.80;100995.81;7422716;19;20036;-58
2022/09/18 11:02:04;;;;;;;9.23;1.55;;;;;;;14.54;49.80;100995.59;7423430;19;20006;-58
2022/09/18 11:04:30;;;;;;;9.73;1.70;;;;;;;14.82;49.43;100983.78;7428564;19;20007;-58
2022/09/18 11:06:57;;;;;;;10.95;3.30;;;;;;;15.05;49.26;100975.00;7424018;19;20025;-58
2022/09/18 11:09:30;;;;;;;11.35;2.42;;;;;;;15.08;50.10;100975.09;7426493;19;20114;-58
2022/09/18 11:11:55;;;;;;;16.40;4.15;;;;;;;15.38;49.93;100960.13;7419389;19;20006;-58
2022/09/18 11:14:23;;;;;;;15.18;4.03;;;;;;;15.65;49.67;100958.38;7421558;19;20332;-57
2022/09/18 11:16:51;;;;;;;13.70;3.72;;;;;;;15.90;49.29;100955.41;7422761;19;20003;-56
2022/09/18 11:19:33;;;;;;;14.93;2.75;;;;;;;16.20;48.94;100933.66;7424904;19;20070;-57
2022/09/18 11:22:06;;;;;;;11.40;3.70;;;;;;;16.33;49.57;100940.56;7428509;19;20030;-57
2022/09/18 11:24:33;;;;;;;13.38;3.30;;;;;;;16.57;48.46;100924.91;7401190;19;20006;-58
2022/09/18 11:27:16;;;;;;;5.03;1.30;;;;;;;16.51;49.22;100942.84;7396468;19;20032;-58
2022/09/18 11:29:41;;;;;;;8.57;1.45;;;;;;;16.42;49.08;100941.13;7393999;19;20025;-58
2022/09/18 11:32:25;;;;;;;9.75;2.30;;;;;;;16.37;49.43;100929.66;7396366;19;20014;-58
2022/09/18 11:34:53;;;;;;;10.52;1.90;;;;;;;16.56;48.69;100913.13;7396713;19;20037;-58